sensor_id;sensor_type;location;lat;lon;timestamp;pressure;altitude;pressure_sealevel;temperature;humidity
65800;BME280;52544;48.116;11.660;2022-07-29T00:00:22;95574.25;;;21.10;61.98
65800;BME280;52544;48.116;11.660;2022-07-29T00:02:48;95570.50;;;21.05;61.22
65800;BME280;52544;48.116;11.660;2022-07-29T00:05:13;95571.34;;;21.05;61.11
65800;BME280;52544;48.116;11.660;2022-07-29T00:07:39;95559.28;;;21.01;61.05
65800;BME280;52544;48.116;11.660;2022-07-29T00:10:06;95568.03;;;21.03;60.71
65800;BME280;52544;48.116;11.660;2022-07-29T00:12:31;95568.63;;;21.05;61.05
65800;BME280;52544;48.116;11.660;2022-07-29T00:14:57;95571.34;;;21.05;61.45
65800;BME280;52544;48.116;11.660;2022-07-29T00:17:25;95569.69;;;21.04;60.88
65800;BME280;52544;48.116;11.660;2022-07-29T00:19:51;95572.59;;;21.09;61.06
65800;BME280;52544;48.116;11.660;2022-07-29T00:22:17;95562.19;;;21.00;61.04
65800;BME280;52544;48.116;11.660;2022-07-29T00:24:42;95569.63;;;20.97;61.33
65800;BME280;52544;48.116;11.660;2022-07-29T00:27:08;95570.41;;;20.91;61.73
65800;BME280;52544;48.116;11.660;2022-07-29T00:29:33;95565.84;;;20.92;62.22
65800;BME280;52544;48.116;11.660;2022-07-29T00:31:58;95563.78;;;20.94;61.82
65800;BME280;52544;48.116;11.660;2022-07-29T00:34:24;95564.22;;;20.97;61.93
65800;BME280;52544;48.116;11.660;2022-07-29T00:37:08;95563.38;;;20.90;62.46
65800;BME280;52544;48.116;11.660;2022-07-29T00:39:33;95558.00;;;20.90;62.28
65800;BME280;52544;48.116;11.660;2022-07-29T00:42:02;95555.53;;;20.95;63.06
65800;BME280;52544;48.116;11.660;2022-07-29T00:44:27;95558.41;;;20.94;62.64
65800;BME280;52544;48.116;11.660;2022-07-29T00:46:53;95553.88;;;20.94;62.21
65800;BME280;52544;48.116;11.660;2022-07-29T00:49:18;95551.38;;;20.93;62.60
65800;BME280;52544;48.116;11.660;2022-07-29T00:51:44;95550.56;;;20.92;62.64
65800;BME280;52544;48.116;11.660;2022-07-29T00:54:09;95538.97;;;20.92;62.54
65800;BME280;52544;48.116;11.660;2022-07-29T00:56:35;95526.09;;;20.87;62.75
65800;BME280;52544;48.116;11.660;2022-07-29T00:59:00;95525.28;;;20.87;63.03
65800;BME280;52544;48.116;11.660;2022-07-29T01:01:26;95522.97;;;20.84;63.93
65800;BME280;52544;48.116;11.660;2022-07-29T01:03:52;95519.06;;;20.86;63.62
65800;BME280;52544;48.116;11.660;2022-07-29T01:06:18;95522.59;;;20.87;63.34
65800;BME280;52544;48.116;11.660;2022-07-29T01:08:45;95509.53;;;20.84;64.01
65800;BME280;52544;48.116;11.660;2022-07-29T01:11:12;95518.41;;;20.84;63.52
65800;BME280;52544;48.116;11.660;2022-07-29T01:13:38;95519.44;;;20.83;63.07
65800;BME280;52544;48.116;11.660;2022-07-29T01:16:15;95513.25;;;20.83;63.51
65800;BME280;52544;48.116;11.660;2022-07-29T01:18:46;95509.47;;;20.77;63.80
65800;BME280;52544;48.116;11.660;2022-07-29T01:29:00;95516.81;;;20.90;62.95
65800;BME280;52544;48.116;11.660;2022-07-29T01:34:41;95516.13;;;20.81;62.15
65800;BME280;52544;48.116;11.660;2022-07-29T01:37:23;95510.34;;;20.84;62.41
65800;BME280;52544;48.116;11.660;2022-07-29T01:39:51;95507.28;;;20.87;62.42
65800;BME280;52544;48.116;11.660;2022-07-29T01:50:48;95513.63;;;20.80;63.61
65800;BME280;52544;48.116;11.660;2022-07-29T01:53:23;95511.59;;;20.82;63.29
65800;BME280;52544;48.116;11.660;2022-07-29T01:55:51;95514.47;;;20.80;62.94
65800;BME280;52544;48.116;11.660;2022-07-29T01:58:19;95509.66;;;20.76;62.42
65800;BME280;52544;48.116;11.660;2022-07-29T02:00:46;95506.59;;;20.79;61.84
65800;BME280;52544;48.116;11.660;2022-07-29T02:03:14;95507.88;;;20.83;61.47
65800;BME280;52544;48.116;11.660;2022-07-29T02:05:43;95506.97;;;20.76;61.61
65800;BME280;52544;48.116;11.660;2022-07-29T02:08:11;95504.09;;;20.77;62.98
65800;BME280;52544;48.116;11.660;2022-07-29T02:10:38;95498.31;;;20.80;62.63
65800;BME280;52544;48.116;11.660;2022-07-29T02:13:05;95490.94;;;20.89;62.93
65800;BME280;52544;48.116;11.660;2022-07-29T02:15:33;95498.00;;;20.90;63.82
65800;BME280;52544;48.116;11.660;2022-07-29T02:18:07;95496.06;;;20.84;63.90
65800;BME280;52544;48.116;11.660;2022-07-29T02:20:36;95494.44;;;20.83;64.08
65800;BME280;52544;48.116;11.660;2022-07-29T02:23:03;95490.69;;;20.84;64.25
65800;BME280;52544;48.116;11.660;2022-07-29T02:25:30;95480.09;;;20.76;64.35
65800;BME280;52544;48.116;11.660;2022-07-29T02:27:56;95480.69;;;20.71;64.21
65800;BME280;52544;48.116;11.660;2022-07-29T02:30:25;95470.53;;;20.66;64.39
65800;BME280;52544;48.116;11.660;2022-07-29T02:32:51;95476.03;;;20.58;65.11
65800;BME280;52544;48.116;11.660;2022-07-29T02:35:18;95473.28;;;20.52;64.94
65800;BME280;52544;48.116;11.660;2022-07-29T02:37:45;95469.63;;;20.59;64.93
65800;BME280;52544;48.116;11.660;2022-07-29T02:40:33;95477.47;;;20.54;65.15
65800;BME280;52544;48.116;11.660;2022-07-29T02:43:01;95466.50;;;20.56;65.53
65800;BME280;52544;48.116;11.660;2022-07-29T02:45:27;95468.63;;;20.60;65.49
65800;BME280;52544;48.116;11.660;2022-07-29T02:47:54;95463.44;;;20.59;66.11
65800;BME280;52544;48.116;11.660;2022-07-29T02:50:31;95465.28;;;20.58;66.91
65800;BME280;52544;48.116;11.660;2022-07-29T02:53:02;95462.97;;;20.55;66.88
65800;BME280;52544;48.116;11.660;2022-07-29T02:55:37;95462.13;;;20.48;66.40
65800;BME280;52544;48.116;11.660;2022-07-29T02:58:47;95461.44;;;20.46;66.51
65800;BME280;52544;48.116;11.660;2022-07-29T03:01:22;95457.56;;;20.49;67.15
65800;BME280;52544;48.116;11.660;2022-07-29T03:03:50;95457.25;;;20.37;67.55
65800;BME280;52544;48.116;11.660;2022-07-29T03:06:18;95460.97;;;20.36;68.01
65800;BME280;52544;48.116;11.660;2022-07-29T03:08:45;95457.59;;;20.27;68.04
65800;BME280;52544;48.116;11.660;2022-07-29T03:11:12;95457.50;;;20.20;68.03
65800;BME280;52544;48.116;11.660;2022-07-29T03:13:39;95456.69;;;20.20;67.89
65800;BME280;52544;48.116;11.660;2022-07-29T03:16:05;95477.28;;;20.13;68.60
65800;BME280;52544;48.116;11.660;2022-07-29T03:18:31;95466.38;;;20.14;68.13
65800;BME280;52544;48.116;11.660;2022-07-29T03:20:57;95470.69;;;20.15;68.50
65800;BME280;52544;48.116;11.660;2022-07-29T03:23:23;95475.25;;;20.15;68.64
65800;BME280;52544;48.116;11.660;2022-07-29T03:25:49;95473.06;;;20.25;68.69
65800;BME280;52544;48.116;11.660;2022-07-29T03:28:15;95469.28;;;20.19;68.32
65800;BME280;52544;48.116;11.660;2022-07-29T03:30:40;95467.63;;;20.18;68.56
65800;BME280;52544;48.116;11.660;2022-07-29T03:33:06;95471.28;;;20.11;68.97
65800;BME280;52544;48.116;11.660;2022-07-29T03:35:31;95470.06;;;19.92;70.31
65800;BME280;52544;48.116;11.660;2022-07-29T03:37:57;95467.63;;;19.76;71.17
65800;BME280;52544;48.116;11.660;2022-07-29T03:40:33;95455.44;;;19.58;71.51
65800;BME280;52544;48.116;11.660;2022-07-29T03:43:01;95456.44;;;19.57;71.85
65800;BME280;52544;48.116;11.660;2022-07-29T03:45:28;95468.00;;;19.72;70.59
65800;BME280;52544;48.116;11.660;2022-07-29T03:47:59;95465.53;;;19.71;70.37
65800;BME280;52544;48.116;11.660;2022-07-29T03:50:27;95465.06;;;19.53;71.18
65800;BME280;52544;48.116;11.660;2022-07-29T03:52:53;95461.88;;;19.42;71.72
65800;BME280;52544;48.116;11.660;2022-07-29T03:55:19;95463.31;;;19.45;72.46
65800;BME280;52544;48.116;11.660;2022-07-29T03:57:45;95467.81;;;19.38;73.41
65800;BME280;52544;48.116;11.660;2022-07-29T04:00:12;95472.97;;;19.39;73.19
65800;BME280;52544;48.116;11.660;2022-07-29T04:02:38;95467.69;;;19.46;73.28
65800;BME280;52544;48.116;11.660;2022-07-29T04:05:05;95475.53;;;19.47;72.67
65800;BME280;52544;48.116;11.660;2022-07-29T04:07:36;95473.16;;;19.38;73.16
65800;BME280;52544;48.116;11.660;2022-07-29T04:10:02;95467.06;;;19.29;73.56
65800;BME280;52544;48.116;11.660;2022-07-29T04:12:27;95466.06;;;19.15;73.78
65800;BME280;52544;48.116;11.660;2022-07-29T04:14:52;95468.00;;;19.07;74.65
65800;BME280;52544;48.116;11.660;2022-07-29T04:17:18;95478.31;;;19.03;75.18
65800;BME280;52544;48.116;11.660;2022-07-29T04:19:43;95476.88;;;19.07;74.54
65800;BME280;52544;48.116;11.660;2022-07-29T04:22:08;95476.63;;;19.02;75.04
65800;BME280;52544;48.116;11.660;2022-07-29T04:24:34;95483.66;;;19.03;75.22
65800;BME280;52544;48.116;11.660;2022-07-29T04:26:59;95489.66;;;19.05;74.79
65800;BME280;52544;48.116;11.660;2022-07-29T04:29:25;95480.50;;;19.00;75.10
65800;BME280;52544;48.116;11.660;2022-07-29T04:31:50;95497.06;;;19.03;75.86
65800;BME280;52544;48.116;11.660;2022-07-29T04:34:16;95488.63;;;19.06;75.78
65800;BME280;52544;48.116;11.660;2022-07-29T04:36:41;95490.59;;;19.12;75.81
65800;BME280;52544;48.116;11.660;2022-07-29T04:39:06;95484.94;;;19.07;76.20
65800;BME280;52544;48.116;11.660;2022-07-29T04:41:32;95489.94;;;19.10;76.18
65800;BME280;52544;48.116;11.660;2022-07-29T04:43:57;95491.78;;;19.10;76.07
65800;BME280;52544;48.116;11.660;2022-07-29T04:46:23;95499.47;;;19.13;76.24
65800;BME280;52544;48.116;11.660;2022-07-29T04:48:48;95498.25;;;19.15;76.76
65800;BME280;52544;48.116;11.660;2022-07-29T04:51:14;95500.94;;;19.30;76.10
65800;BME280;52544;48.116;11.660;2022-07-29T04:53:40;95503.31;;;19.40;76.80
65800;BME280;52544;48.116;11.660;2022-07-29T04:56:05;95497.47;;;19.51;75.43
65800;BME280;52544;48.116;11.660;2022-07-29T04:58:31;95500.06;;;19.59;74.13
65800;BME280;52544;48.116;11.660;2022-07-29T05:00:58;95508.91;;;19.75;73.74
65800;BME280;52544;48.116;11.660;2022-07-29T05:03:24;95500.38;;;19.86;74.12
65800;BME280;52544;48.116;11.660;2022-07-29T05:05:49;95513.31;;;19.97;72.77
65800;BME280;52544;48.116;11.660;2022-07-29T05:08:15;95502.44;;;20.05;72.71
65800;BME280;52544;48.116;11.660;2022-07-29T05:10:40;95509.59;;;20.19;71.54
65800;BME280;52544;48.116;11.660;2022-07-29T05:13:06;95514.59;;;20.22;71.19
65800;BME280;52544;48.116;11.660;2022-07-29T05:15:35;95520.59;;;20.25;70.54
65800;BME280;52544;48.116;11.660;2022-07-29T05:18:01;95513.09;;;20.20;70.16
65800;BME280;52544;48.116;11.660;2022-07-29T05:20:27;95520.38;;;20.26;71.24
65800;BME280;52544;48.116;11.660;2022-07-29T05:22:57;95513.06;;;20.35;71.52
65800;BME280;52544;48.116;11.660;2022-07-29T05:25:25;95518.44;;;20.35;72.87
65800;BME280;52544;48.116;11.660;2022-07-29T05:27:52;95519.06;;;20.37;73.03
65800;BME280;52544;48.116;11.660;2022-07-29T05:30:18;95513.91;;;20.42;70.83
65800;BME280;52544;48.116;11.660;2022-07-29T05:32:43;95520.94;;;20.43;70.13
65800;BME280;52544;48.116;11.660;2022-07-29T05:35:09;95517.63;;;20.41;69.47
65800;BME280;52544;48.116;11.660;2022-07-29T05:37:35;95529.41;;;20.40;69.87
65800;BME280;52544;48.116;11.660;2022-07-29T05:40:01;95528.59;;;20.39;72.39
65800;BME280;52544;48.116;11.660;2022-07-29T05:42:27;95525.47;;;20.36;73.48
65800;BME280;52544;48.116;11.660;2022-07-29T05:44:52;95532.09;;;20.40;70.86
65800;BME280;52544;48.116;11.660;2022-07-29T05:47:18;95535.03;;;20.45;68.77
65800;BME280;52544;48.116;11.660;2022-07-29T05:49:43;95538.84;;;20.51;69.53
65800;BME280;52544;48.116;11.660;2022-07-29T05:52:09;95537.88;;;20.58;69.16
65800;BME280;52544;48.116;11.660;2022-07-29T05:54:35;95539.16;;;20.62;68.65
65800;BME280;52544;48.116;11.660;2022-07-29T05:57:00;95541.69;;;20.70;68.01
65800;BME280;52544;48.116;11.660;2022-07-29T05:59:26;95549.41;;;20.80;67.92
65800;BME280;52544;48.116;11.660;2022-07-29T06:01:51;95538.28;;;20.83;67.34
65800;BME280;52544;48.116;11.660;2022-07-29T06:04:17;95539.34;;;20.89;68.06
65800;BME280;52544;48.116;11.660;2022-07-29T06:06:42;95542.72;;;20.97;67.18
65800;BME280;52544;48.116;11.660;2022-07-29T06:09:08;95545.66;;;21.03;66.76
65800;BME280;52544;48.116;11.660;2022-07-29T06:11:33;95549.81;;;21.05;66.01
65800;BME280;52544;48.116;11.660;2022-07-29T06:13:58;95544.28;;;21.13;66.70
65800;BME280;52544;48.116;11.660;2022-07-29T06:16:24;95542.84;;;21.17;65.65
65800;BME280;52544;48.116;11.660;2022-07-29T06:18:49;95539.63;;;21.29;65.76
65800;BME280;52544;48.116;11.660;2022-07-29T06:21:15;95542.56;;;21.34;65.16
65800;BME280;52544;48.116;11.660;2022-07-29T06:23:40;95536.16;;;21.35;64.72
65800;BME280;52544;48.116;11.660;2022-07-29T06:26:06;95544.44;;;21.40;64.61
65800;BME280;52544;48.116;11.660;2022-07-29T06:28:32;95543.97;;;21.30;64.19
65800;BME280;52544;48.116;11.660;2022-07-29T06:30:58;95549.84;;;21.40;64.65
65800;BME280;52544;48.116;11.660;2022-07-29T06:33:23;95544.69;;;21.45;64.87
65800;BME280;52544;48.116;11.660;2022-07-29T06:35:49;95541.66;;;21.55;63.90
65800;BME280;52544;48.116;11.660;2022-07-29T06:38:14;95531.31;;;21.58;64.25
65800;BME280;52544;48.116;11.660;2022-07-29T06:40:43;95545.38;;;21.54;63.83
65800;BME280;52544;48.116;11.660;2022-07-29T06:43:39;95536.97;;;21.77;63.36
65800;BME280;52544;48.116;11.660;2022-07-29T06:46:14;95542.44;;;21.96;62.64
65800;BME280;52544;48.116;11.660;2022-07-29T06:48:41;95535.44;;;22.15;62.16
65800;BME280;52544;48.116;11.660;2022-07-29T06:51:08;95539.19;;;22.14;61.60
65800;BME280;52544;48.116;11.660;2022-07-29T06:53:35;95538.81;;;22.31;60.65
65800;BME280;52544;48.116;11.660;2022-07-29T06:56:02;95543.38;;;22.37;60.94
65800;BME280;52544;48.116;11.660;2022-07-29T06:58:28;95545.84;;;22.38;61.40
65800;BME280;52544;48.116;11.660;2022-07-29T07:00:54;95546.50;;;22.40;61.23
65800;BME280;52544;48.116;11.660;2022-07-29T07:03:20;95551.69;;;22.55;59.97
65800;BME280;52544;48.116;11.660;2022-07-29T07:05:45;95549.63;;;22.57;59.52
65800;BME280;52544;48.116;11.660;2022-07-29T07:08:12;95552.53;;;22.62;60.12
65800;BME280;52544;48.116;11.660;2022-07-29T07:10:38;95551.91;;;22.67;58.41
65800;BME280;52544;48.116;11.660;2022-07-29T07:13:05;95552.09;;;22.72;58.32
65800;BME280;52544;48.116;11.660;2022-07-29T07:15:30;95551.28;;;22.78;57.70
65800;BME280;52544;48.116;11.660;2022-07-29T07:17:56;95560.00;;;22.80;58.38
65800;BME280;52544;48.116;11.660;2022-07-29T07:20:23;95550.69;;;22.96;57.65
65800;BME280;52544;48.116;11.660;2022-07-29T07:22:48;95555.66;;;23.06;55.46
65800;BME280;52544;48.116;11.660;2022-07-29T07:25:14;95558.97;;;23.01;55.37
65800;BME280;52544;48.116;11.660;2022-07-29T07:27:39;95552.13;;;23.05;56.88
65800;BME280;52544;48.116;11.660;2022-07-29T07:30:06;95551.47;;;23.23;57.29
65800;BME280;52544;48.116;11.660;2022-07-29T07:32:33;95548.31;;;23.39;56.44
65800;BME280;52544;48.116;11.660;2022-07-29T07:34:59;95543.13;;;23.44;55.34
65800;BME280;52544;48.116;11.660;2022-07-29T07:37:25;95549.97;;;23.54;56.18
65800;BME280;52544;48.116;11.660;2022-07-29T07:39:54;95544.94;;;23.64;54.67
65800;BME280;52544;48.116;11.660;2022-07-29T07:42:19;95547.34;;;23.92;53.77
65800;BME280;52544;48.116;11.660;2022-07-29T07:44:45;95550.84;;;23.99;55.23
65800;BME280;52544;48.116;11.660;2022-07-29T07:47:14;95548.94;;;24.13;54.82
65800;BME280;52544;48.116;11.660;2022-07-29T07:49:45;95543.16;;;24.41;52.55
65800;BME280;52544;48.116;11.660;2022-07-29T07:52:11;95542.19;;;24.60;52.01
65800;BME280;52544;48.116;11.660;2022-07-29T07:54:36;95542.91;;;24.49;51.20
65800;BME280;52544;48.116;11.660;2022-07-29T07:57:02;95542.41;;;24.59;50.38
65800;BME280;52544;48.116;11.660;2022-07-29T07:59:27;95529.50;;;24.61;51.50
65800;BME280;52544;48.116;11.660;2022-07-29T08:01:52;95542.91;;;24.74;50.12
65800;BME280;52544;48.116;11.660;2022-07-29T08:04:18;95535.78;;;24.80;49.32
65800;BME280;52544;48.116;11.660;2022-07-29T08:06:43;95545.47;;;24.94;49.16
65800;BME280;52544;48.116;11.660;2022-07-29T08:09:09;95552.38;;;24.90;50.49
65800;BME280;52544;48.116;11.660;2022-07-29T08:11:34;95552.38;;;24.90;50.34
65800;BME280;52544;48.116;11.660;2022-07-29T08:14:00;95548.88;;;24.83;48.33
65800;BME280;52544;48.116;11.660;2022-07-29T08:16:26;95551.25;;;24.98;47.61
65800;BME280;52544;48.116;11.660;2022-07-29T08:18:52;95549.56;;;24.78;47.86
65800;BME280;52544;48.116;11.660;2022-07-29T08:21:23;95548.38;;;24.67;50.24
65800;BME280;52544;48.116;11.660;2022-07-29T08:23:48;95548.34;;;24.74;48.74
65800;BME280;52544;48.116;11.660;2022-07-29T08:26:14;95552.94;;;24.67;50.18
65800;BME280;52544;48.116;11.660;2022-07-29T08:28:41;95559.31;;;24.79;50.01
65800;BME280;52544;48.116;11.660;2022-07-29T08:31:11;95558.50;;;24.79;48.74
65800;BME280;52544;48.116;11.660;2022-07-29T08:33:38;95551.34;;;24.84;49.16
65800;BME280;52544;48.116;11.660;2022-07-29T08:36:05;95555.94;;;24.84;49.61
65800;BME280;52544;48.116;11.660;2022-07-29T08:38:31;95544.38;;;24.77;49.50
65800;BME280;52544;48.116;11.660;2022-07-29T08:40:57;95548.72;;;24.78;48.80
65800;BME280;52544;48.116;11.660;2022-07-29T08:43:23;95552.66;;;24.82;48.65
65800;BME280;52544;48.116;11.660;2022-07-29T08:45:50;95552.66;;;24.82;49.05
65800;BME280;52544;48.116;11.660;2022-07-29T08:48:21;95547.63;;;24.85;51.09
65800;BME280;52544;48.116;11.660;2022-07-29T08:50:49;95551.31;;;24.91;48.53
65800;BME280;52544;48.116;11.660;2022-07-29T08:53:17;95561.72;;;24.94;49.20
65800;BME280;52544;48.116;11.660;2022-07-29T08:55:45;95553.91;;;25.04;49.55
65800;BME280;52544;48.116;11.660;2022-07-29T08:58:11;95544.34;;;25.02;48.79
65800;BME280;52544;48.116;11.660;2022-07-29T09:00:40;95547.44;;;25.05;50.03
65800;BME280;52544;48.116;11.660;2022-07-29T09:03:08;95551.63;;;25.01;50.54
65800;BME280;52544;48.116;11.660;2022-07-29T09:05:34;95551.03;;;24.99;49.76
65800;BME280;52544;48.116;11.660;2022-07-29T09:08:00;95564.22;;;24.89;48.91
65800;BME280;52544;48.116;11.660;2022-07-29T09:10:26;95569.22;;;24.92;49.68
65800;BME280;52544;48.116;11.660;2022-07-29T09:12:51;95575.69;;;24.91;50.93
65800;BME280;52544;48.116;11.660;2022-07-29T09:15:17;95569.56;;;25.02;50.59
65800;BME280;52544;48.116;11.660;2022-07-29T09:17:45;95573.09;;;25.03;49.69
65800;BME280;52544;48.116;11.660;2022-07-29T09:20:14;95574.56;;;24.99;51.12
65800;BME280;52544;48.116;11.660;2022-07-29T09:22:40;95570.53;;;25.08;50.77
65800;BME280;52544;48.116;11.660;2022-07-29T09:25:06;95572.84;;;25.04;51.95
65800;BME280;52544;48.116;11.660;2022-07-29T09:27:31;95567.78;;;25.14;50.75
65800;BME280;52544;48.116;11.660;2022-07-29T09:30:08;95563.97;;;25.22;50.11
65800;BME280;52544;48.116;11.660;2022-07-29T09:32:57;95559.09;;;25.31;49.94
65800;BME280;52544;48.116;11.660;2022-07-29T09:35:24;95558.91;;;25.32;49.40
65800;BME280;52544;48.116;11.660;2022-07-29T09:37:50;95553.38;;;25.39;51.69
65800;BME280;52544;48.116;11.660;2022-07-29T09:40:19;95546.19;;;25.51;52.61
65800;BME280;52544;48.116;11.660;2022-07-29T09:42:45;95552.81;;;25.55;50.28
65800;BME280;52544;48.116;11.660;2022-07-29T09:45:11;95549.81;;;25.63;50.88
65800;BME280;52544;48.116;11.660;2022-07-29T09:47:42;95549.75;;;25.70;50.54
65800;BME280;52544;48.116;11.660;2022-07-29T09:50:10;95544.47;;;25.75;51.86
65800;BME280;52544;48.116;11.660;2022-07-29T09:52:45;95541.13;;;25.73;48.92
65800;BME280;52544;48.116;11.660;2022-07-29T09:55:12;95534.06;;;25.72;49.63
65800;BME280;52544;48.116;11.660;2022-07-29T09:57:37;95542.63;;;25.69;48.50
65800;BME280;52544;48.116;11.660;2022-07-29T10:02:34;95546.19;;;25.51;49.73
65800;BME280;52544;48.116;11.660;2022-07-29T10:05:02;95541.06;;;25.43;50.76
65800;BME280;52544;48.116;11.660;2022-07-29T10:08:06;95540.38;;;25.48;48.84
65800;BME280;52544;48.116;11.660;2022-07-29T10:10:38;95541.59;;;25.33;49.74
65800;BME280;52544;48.116;11.660;2022-07-29T10:13:06;95541.19;;;25.30;50.21
65800;BME280;52544;48.116;11.660;2022-07-29T10:15:34;95540.59;;;25.28;50.24
65800;BME280;52544;48.116;11.660;2022-07-29T10:18:07;95541.88;;;25.25;50.28
65800;BME280;52544;48.116;11.660;2022-07-29T10:20:33;95540.28;;;25.17;50.54
65800;BME280;52544;48.116;11.660;2022-07-29T10:22:59;95535.34;;;25.08;51.45
65800;BME280;52544;48.116;11.660;2022-07-29T10:25:25;95543.50;;;25.01;51.92
65800;BME280;52544;48.116;11.660;2022-07-29T10:27:51;95545.25;;;24.96;51.61
65800;BME280;52544;48.116;11.660;2022-07-29T10:30:18;95546.50;;;24.93;51.51
65800;BME280;52544;48.116;11.660;2022-07-29T10:32:58;95544.84;;;24.92;51.09
65800;BME280;52544;48.116;11.660;2022-07-29T10:40:57;95541.00;;;24.81;51.57
65800;BME280;52544;48.116;11.660;2022-07-29T10:43:46;95538.88;;;24.83;51.40
65800;BME280;52544;48.116;11.660;2022-07-29T10:46:14;95544.41;;;24.70;52.34
65800;BME280;52544;48.116;11.660;2022-07-29T10:52:08;95546.78;;;24.60;53.32
65800;BME280;52544;48.116;11.660;2022-07-29T10:57:17;95549.16;;;24.75;52.61
65800;BME280;52544;48.116;11.660;2022-07-29T10:59:49;95538.09;;;25.01;53.22
65800;BME280;52544;48.116;11.660;2022-07-29T11:07:32;95532.78;;;25.56;51.84
65800;BME280;52544;48.116;11.660;2022-07-29T11:15:03;95523.53;;;26.31;55.54
65800;BME280;52544;48.116;11.660;2022-07-29T11:23:23;95525.69;;;27.06;46.44
65800;BME280;52544;48.116;11.660;2022-07-29T11:29:01;95525.75;;;27.41;45.26
65800;BME280;52544;48.116;11.660;2022-07-29T11:31:41;95527.59;;;27.52;46.33
65800;BME280;52544;48.116;11.660;2022-07-29T11:34:27;95511.38;;;27.81;45.82
65800;BME280;52544;48.116;11.660;2022-07-29T11:39:33;95518.97;;;27.79;47.26
65800;BME280;52544;48.116;11.660;2022-07-29T11:47:28;95505.53;;;27.49;45.61
65800;BME280;52544;48.116;11.660;2022-07-29T11:50:00;95504.56;;;27.43;47.05
65800;BME280;52544;48.116;11.660;2022-07-29T11:52:37;95495.97;;;27.46;45.11
65800;BME280;52544;48.116;11.660;2022-07-29T11:55:09;95496.06;;;27.75;44.92
65800;BME280;52544;48.116;11.660;2022-07-29T11:57:36;95495.97;;;27.98;44.50
65800;BME280;52544;48.116;11.660;2022-07-29T12:00:04;95490.66;;;28.20;43.53
65800;BME280;52544;48.116;11.660;2022-07-29T12:02:41;95491.31;;;28.39;45.96
65800;BME280;52544;48.116;11.660;2022-07-29T12:05:08;95493.00;;;28.74;44.76
65800;BME280;52544;48.116;11.660;2022-07-29T12:07:35;95482.44;;;28.94;41.98
65800;BME280;52544;48.116;11.660;2022-07-29T12:10:02;95489.19;;;28.92;40.18
65800;BME280;52544;48.116;11.660;2022-07-29T12:12:28;95484.09;;;28.95;41.98
65800;BME280;52544;48.116;11.660;2022-07-29T12:14:54;95481.94;;;29.14;43.04
65800;BME280;52544;48.116;11.660;2022-07-29T12:17:27;95477.00;;;29.28;39.79
65800;BME280;52544;48.116;11.660;2022-07-29T12:19:57;95484.84;;;28.90;39.13
65800;BME280;52544;48.116;11.660;2022-07-29T12:22:29;95483.25;;;28.44;40.37
65800;BME280;52544;48.116;11.660;2022-07-29T12:24:55;95478.09;;;28.31;41.39
65800;BME280;52544;48.116;11.660;2022-07-29T12:27:22;95476.97;;;28.15;41.49
65800;BME280;52544;48.116;11.660;2022-07-29T12:29:57;95474.63;;;28.07;41.25
65800;BME280;52544;48.116;11.660;2022-07-29T12:32:23;95473.47;;;28.03;42.08
65800;BME280;52544;48.116;11.660;2022-07-29T12:34:49;95476.94;;;27.98;42.20
65800;BME280;52544;48.116;11.660;2022-07-29T12:37:16;95482.28;;;27.93;43.40
65800;BME280;52544;48.116;11.660;2022-07-29T12:39:42;95478.38;;;27.89;43.00
65800;BME280;52544;48.116;11.660;2022-07-29T12:42:14;95474.66;;;27.55;43.40
65800;BME280;52544;48.116;11.660;2022-07-29T12:44:49;95471.75;;;27.45;45.97
65800;BME280;52544;48.116;11.660;2022-07-29T12:47:16;95460.03;;;27.44;46.32
65800;BME280;52544;48.116;11.660;2022-07-29T12:49:44;95461.44;;;27.47;46.59
65800;BME280;52544;48.116;11.660;2022-07-29T12:52:31;95465.94;;;27.93;45.80
65800;BME280;52544;48.116;11.660;2022-07-29T12:54:57;95462.84;;;28.30;46.07
65800;BME280;52544;48.116;11.660;2022-07-29T12:57:23;95467.19;;;28.31;44.14
65800;BME280;52544;48.116;11.660;2022-07-29T13:00:08;95471.69;;;28.37;43.33
65800;BME280;52544;48.116;11.660;2022-07-29T13:02:57;95469.97;;;28.19;42.05
65800;BME280;52544;48.116;11.660;2022-07-29T13:05:23;95470.22;;;27.89;42.17
65800;BME280;52544;48.116;11.660;2022-07-29T13:07:50;95471.81;;;27.73;42.51
65800;BME280;52544;48.116;11.660;2022-07-29T13:10:17;95468.50;;;27.59;42.44
65800;BME280;52544;48.116;11.660;2022-07-29T13:15:27;95474.94;;;27.30;44.63
65800;BME280;52544;48.116;11.660;2022-07-29T13:17:52;95474.84;;;27.25;44.63
65800;BME280;52544;48.116;11.660;2022-07-29T13:20:18;95466.09;;;27.23;44.04
65800;BME280;52544;48.116;11.660;2022-07-29T13:22:47;95469.28;;;27.08;45.90
65800;BME280;52544;48.116;11.660;2022-07-29T13:25:13;95467.88;;;26.94;45.45
65800;BME280;52544;48.116;11.660;2022-07-29T13:27:39;95465.50;;;26.85;45.31
65800;BME280;52544;48.116;11.660;2022-07-29T13:30:09;95468.19;;;26.74;46.49
65800;BME280;52544;48.116;11.660;2022-07-29T13:32:36;95466.91;;;26.64;44.30
65800;BME280;52544;48.116;11.660;2022-07-29T13:35:05;95463.38;;;26.64;44.80
65800;BME280;52544;48.116;11.660;2022-07-29T13:37:33;95469.84;;;26.51;45.50
65800;BME280;52544;48.116;11.660;2022-07-29T13:40:00;95472.13;;;26.36;46.07
65800;BME280;52544;48.116;11.660;2022-07-29T13:42:28;95468.81;;;26.34;45.09
65800;BME280;52544;48.116;11.660;2022-07-29T13:44:53;95471.13;;;26.18;46.51
65800;BME280;52544;48.116;11.660;2022-07-29T13:47:20;95468.50;;;26.12;45.89
65800;BME280;52544;48.116;11.660;2022-07-29T13:49:49;95463.78;;;26.07;46.83
65800;BME280;52544;48.116;11.660;2022-07-29T13:52:15;95464.25;;;26.04;47.15
65800;BME280;52544;48.116;11.660;2022-07-29T13:54:41;95463.19;;;26.05;47.61
65800;BME280;52544;48.116;11.660;2022-07-29T13:57:08;95455.38;;;25.97;48.50